sensor_id;sensor_type;location;lat;lon;timestamp;temperature;humidity
45383;DHT22;42455;51.660;5.824;2023-12-29T00:03:31;13.5;89.0
45383;DHT22;42455;51.660;5.824;2023-12-29T00:08:37;13.6;89.0
45383;DHT22;42455;51.660;5.824;2023-12-29T00:13:43;13.5;88.5
45383;DHT22;42455;51.660;5.824;2023-12-29T00:18:49;13.6;88.5
45383;DHT22;42455;51.660;5.824;2023-12-29T00:23:55;13.6;89.0
45383;DHT22;42455;51.660;5.824;2023-12-29T00:29:02;13.6;89.0
45383;DHT22;42455;51.660;5.824;2023-12-29T00:34:08;13.6;89.0
45383;DHT22;42455;51.660;5.824;2023-12-29T00:39:14;13.6;89.0
45383;DHT22;42455;51.660;5.824;2023-12-29T00:44:20;13.5;89.0
45383;DHT22;42455;51.660;5.824;2023-12-29T00:49:27;13.5;89.5
45383;DHT22;42455;51.660;5.824;2023-12-29T00:54:33;13.4;89.5
45383;DHT22;42455;51.660;5.824;2023-12-29T00:59:39;13.3;90.0
45383;DHT22;42455;51.660;5.824;2023-12-29T01:04:45;13.2;90.0
45383;DHT22;42455;51.660;5.824;2023-12-29T01:09:51;13.2;90.5
45383;DHT22;42455;51.660;5.824;2023-12-29T01:14:58;13.1;90.5
45383;DHT22;42455;51.660;5.824;2023-12-29T01:20:05;13.1;91.0
45383;DHT22;42455;51.660;5.824;2023-12-29T01:25:10;13.0;91.0
45383;DHT22;42455;51.660;5.824;2023-12-29T01:30:16;12.9;91.0
45383;DHT22;42455;51.660;5.824;2023-12-29T01:35:22;12.9;91.5
45383;DHT22;42455;51.660;5.824;2023-12-29T01:40:29;12.9;91.5
45383;DHT22;42455;51.660;5.824;2023-12-29T01:45:35;12.8;91.5
45383;DHT22;42455;51.660;5.824;2023-12-29T01:50:44;12.7;92.0
45383;DHT22;42455;51.660;5.824;2023-12-29T01:55:48;12.6;92.5
45383;DHT22;42455;51.660;5.824;2023-12-29T02:00:53;12.5;92.5
45383;DHT22;42455;51.660;5.824;2023-12-29T02:06:00;12.4;93.0
45383;DHT22;42455;51.660;5.824;2023-12-29T02:11:06;12.3;93.5
45383;DHT22;42455;51.660;5.824;2023-12-29T02:16:40;12.3;93.5
45383;DHT22;42455;51.660;5.824;2023-12-29T02:21:22;12.2;94.0
45383;DHT22;42455;51.660;5.824;2023-12-29T02:26:29;12.2;94.0
45383;DHT22;42455;51.660;5.824;2023-12-29T02:31:50;12.2;94.0
45383;DHT22;42455;51.660;5.824;2023-12-29T02:36:39;12.1;94.5
45383;DHT22;42455;51.660;5.824;2023-12-29T02:41:43;12.1;94.5
45383;DHT22;42455;51.660;5.824;2023-12-29T02:46:49;12.1;95.0
45383;DHT22;42455;51.660;5.824;2023-12-29T02:51:56;12.1;95.0
45383;DHT22;42455;51.660;5.824;2023-12-29T02:57:02;12.1;95.0
45383;DHT22;42455;51.660;5.824;2023-12-29T03:02:08;12.1;95.0
45383;DHT22;42455;51.660;5.824;2023-12-29T03:07:14;12.1;95.0
45383;DHT22;42455;51.660;5.824;2023-12-29T03:12:21;12.2;95.0
45383;DHT22;42455;51.660;5.824;2023-12-29T03:17:27;12.2;95.0
45383;DHT22;42455;51.660;5.824;2023-12-29T03:22:33;12.3;95.0
45383;DHT22;42455;51.660;5.824;2023-12-29T03:27:39;12.4;95.0
45383;DHT22;42455;51.660;5.824;2023-12-29T03:32:45;12.4;95.0
45383;DHT22;42455;51.660;5.824;2023-12-29T03:37:52;12.5;94.5
45383;DHT22;42455;51.660;5.824;2023-12-29T03:42:58;12.6;94.5
45383;DHT22;42455;51.660;5.824;2023-12-29T03:48:04;12.6;94.0
45383;DHT22;42455;51.660;5.824;2023-12-29T03:53:10;12.6;94.0
45383;DHT22;42455;51.660;5.824;2023-12-29T03:58:16;12.7;94.0
45383;DHT22;42455;51.660;5.824;2023-12-29T04:03:23;12.7;93.5
45383;DHT22;42455;51.660;5.824;2023-12-29T04:08:29;12.7;93.5
45383;DHT22;42455;51.660;5.824;2023-12-29T04:13:35;12.7;93.5
45383;DHT22;42455;51.660;5.824;2023-12-29T04:18:41;12.7;93.5
45383;DHT22;42455;51.660;5.824;2023-12-29T04:23:47;12.8;93.0
45383;DHT22;42455;51.660;5.824;2023-12-29T04:28:53;12.8;93.0
45383;DHT22;42455;51.660;5.824;2023-12-29T04:34:00;12.8;93.0
45383;DHT22;42455;51.660;5.824;2023-12-29T04:39:06;12.8;93.0
45383;DHT22;42455;51.660;5.824;2023-12-29T04:44:12;12.8;92.5
45383;DHT22;42455;51.660;5.824;2023-12-29T04:49:18;12.8;92.5
45383;DHT22;42455;51.660;5.824;2023-12-29T04:54:25;12.8;92.5
45383;DHT22;42455;51.660;5.824;2023-12-29T04:59:31;12.8;92.5
45383;DHT22;42455;51.660;5.824;2023-12-29T05:04:37;12.8;92.0
45383;DHT22;42455;51.660;5.824;2023-12-29T05:09:43;12.9;92.0
45383;DHT22;42455;51.660;5.824;2023-12-29T05:14:48;12.9;92.0
45383;DHT22;42455;51.660;5.824;2023-12-29T05:19:55;12.9;92.0
45383;DHT22;42455;51.660;5.824;2023-12-29T05:25:01;12.8;92.0
45383;DHT22;42455;51.660;5.824;2023-12-29T05:30:07;12.8;92.0
45383;DHT22;42455;51.660;5.824;2023-12-29T05:35:13;12.9;91.5
45383;DHT22;42455;51.660;5.824;2023-12-29T05:40:19;12.8;91.5
45383;DHT22;42455;51.660;5.824;2023-12-29T05:45:26;12.8;91.5
45383;DHT22;42455;51.660;5.824;2023-12-29T05:50:32;12.8;91.5
45383;DHT22;42455;51.660;5.824;2023-12-29T05:55:38;12.8;91.5
45383;DHT22;42455;51.660;5.824;2023-12-29T06:00:44;12.8;91.5
45383;DHT22;42455;51.660;5.824;2023-12-29T06:05:51;12.8;91.5
45383;DHT22;42455;51.660;5.824;2023-12-29T06:10:57;12.7;91.5
45383;DHT22;42455;51.660;5.824;2023-12-29T06:16:03;12.8;91.5
45383;DHT22;42455;51.660;5.824;2023-12-29T06:21:09;12.7;91.5
45383;DHT22;42455;51.660;5.824;2023-12-29T06:26:16;12.7;92.0
45383;DHT22;42455;51.660;5.824;2023-12-29T06:31:22;12.8;92.0
45383;DHT22;42455;51.660;5.824;2023-12-29T06:36:28;12.8;92.0
45383;DHT22;42455;51.660;5.824;2023-12-29T06:41:34;12.8;92.0
45383;DHT22;42455;51.660;5.824;2023-12-29T06:46:40;12.7;92.0
45383;DHT22;42455;51.660;5.824;2023-12-29T06:51:46;12.7;92.5
45383;DHT22;42455;51.660;5.824;2023-12-29T06:56:53;12.6;92.5
45383;DHT22;42455;51.660;5.824;2023-12-29T07:01:59;12.6;92.5
45383;DHT22;42455;51.660;5.824;2023-12-29T07:07:05;12.6;93.0
45383;DHT22;42455;51.660;5.824;2023-12-29T07:12:11;12.6;93.0
45383;DHT22;42455;51.660;5.824;2023-12-29T07:17:17;12.5;93.0
45383;DHT22;42455;51.660;5.824;2023-12-29T07:22:24;12.5;93.0
45383;DHT22;42455;51.660;5.824;2023-12-29T07:27:30;12.6;93.5
45383;DHT22;42455;51.660;5.824;2023-12-29T07:32:36;12.6;93.5
45383;DHT22;42455;51.660;5.824;2023-12-29T07:37:42;12.6;93.5
45383;DHT22;42455;51.660;5.824;2023-12-29T07:42:48;12.6;93.5
45383;DHT22;42455;51.660;5.824;2023-12-29T07:47:55;12.6;93.5
45383;DHT22;42455;51.660;5.824;2023-12-29T07:53:01;12.6;93.5
45383;DHT22;42455;51.660;5.824;2023-12-29T07:58:07;12.7;93.5
45383;DHT22;42455;51.660;5.824;2023-12-29T08:03:13;12.7;93.5
45383;DHT22;42455;51.660;5.824;2023-12-29T08:08:19;12.7;93.5
45383;DHT22;42455;51.660;5.824;2023-12-29T08:13:26;12.7;94.0
45383;DHT22;42455;51.660;5.824;2023-12-29T08:23:38;12.8;94.0
45383;DHT22;42455;51.660;5.824;2023-12-29T08:28:44;12.8;93.5
45383;DHT22;42455;51.660;5.824;2023-12-29T08:33:51;12.8;93.5
45383;DHT22;42455;51.660;5.824;2023-12-29T08:38:57;12.8;93.5
45383;DHT22;42455;51.660;5.824;2023-12-29T08:44:03;12.9;94.0
45383;DHT22;42455;51.660;5.824;2023-12-29T08:54:15;12.9;94.0
45383;DHT22;42455;51.660;5.824;2023-12-29T08:59:22;12.9;94.0
45383;DHT22;42455;51.660;5.824;2023-12-29T09:04:28;12.9;94.0
45383;DHT22;42455;51.660;5.824;2023-12-29T09:09:34;13.0;94.0
45383;DHT22;42455;51.660;5.824;2023-12-29T09:14:40;13.0;94.0
45383;DHT22;42455;51.660;5.824;2023-12-29T09:19:46;13.0;93.5
45383;DHT22;42455;51.660;5.824;2023-12-29T09:24:53;13.0;93.5
45383;DHT22;42455;51.660;5.824;2023-12-29T09:29:59;13.1;93.5
45383;DHT22;42455;51.660;5.824;2023-12-29T09:35:05;13.1;93.5
45383;DHT22;42455;51.660;5.824;2023-12-29T09:40:12;13.0;93.5
45383;DHT22;42455;51.660;5.824;2023-12-29T09:45:22;13.0;93.5
45383;DHT22;42455;51.660;5.824;2023-12-29T09:50:25;12.9;93.5
45383;DHT22;42455;51.660;5.824;2023-12-29T09:55:31;12.9;94.0
45383;DHT22;42455;51.660;5.824;2023-12-29T10:00:37;12.8;94.0
45383;DHT22;42455;51.660;5.824;2023-12-29T10:05:43;12.8;94.5
45383;DHT22;42455;51.660;5.824;2023-12-29T10:10:49;12.8;94.5
45383;DHT22;42455;51.660;5.824;2023-12-29T10:16:42;12.8;95.0
45383;DHT22;42455;51.660;5.824;2023-12-29T10:24:17;12.8;95.0
45383;DHT22;42455;51.660;5.824;2023-12-29T10:26:10;12.8;95.0
45383;DHT22;42455;51.660;5.824;2023-12-29T10:31:15;12.8;95.0
45383;DHT22;42455;51.660;5.824;2023-12-29T10:36:20;12.9;95.0
45383;DHT22;42455;51.660;5.824;2023-12-29T10:41:26;12.9;95.0
45383;DHT22;42455;51.660;5.824;2023-12-29T10:46:31;12.9;95.0
45383;DHT22;42455;51.660;5.824;2023-12-29T10:51:37;13.0;95.0
45383;DHT22;42455;51.660;5.824;2023-12-29T10:56:43;13.0;94.5
45383;DHT22;42455;51.660;5.824;2023-12-29T11:01:50;13.0;94.5
45383;DHT22;42455;51.660;5.824;2023-12-29T11:06:56;13.1;94.5
45383;DHT22;42455;51.660;5.824;2023-12-29T11:12:03;13.1;94.0
45383;DHT22;42455;51.660;5.824;2023-12-29T11:17:08;13.1;94.0
45383;DHT22;42455;51.660;5.824;2023-12-29T11:22:14;13.1;94.0
45383;DHT22;42455;51.660;5.824;2023-12-29T11:27:20;13.2;94.0
45383;DHT22;42455;51.660;5.824;2023-12-29T11:32:30;13.2;94.0
45383;DHT22;42455;51.660;5.824;2023-12-29T11:38:54;13.2;94.0
45383;DHT22;42455;51.660;5.824;2023-12-29T11:43:23;13.3;93.5
45383;DHT22;42455;51.660;5.824;2023-12-29T11:47:45;13.3;93.5
45383;DHT22;42455;51.660;5.824;2023-12-29T11:52:51;13.4;93.5
45383;DHT22;42455;51.660;5.824;2023-12-29T11:57:57;13.4;93.5
45383;DHT22;42455;51.660;5.824;2023-12-29T12:03:13;13.5;93.5
45383;DHT22;42455;51.660;5.824;2023-12-29T12:08:09;13.5;93.5
45383;DHT22;42455;51.660;5.824;2023-12-29T12:13:43;13.6;93.5
45383;DHT22;42455;51.660;5.824;2023-12-29T12:18:22;13.6;93.5
45383;DHT22;42455;51.660;5.824;2023-12-29T12:23:32;13.6;93.5
45383;DHT22;42455;51.660;5.824;2023-12-29T12:28:34;13.6;93.5
45383;DHT22;42455;51.660;5.824;2023-12-29T12:33:41;13.6;93.5
45383;DHT22;42455;51.660;5.824;2023-12-29T12:38:50;13.6;93.5
45383;DHT22;42455;51.660;5.824;2023-12-29T12:44:08;13.5;93.0
45383;DHT22;42455;51.660;5.824;2023-12-29T12:48:59;13.5;93.0
45383;DHT22;42455;51.660;5.824;2023-12-29T12:54:06;13.5;93.5
45383;DHT22;42455;51.660;5.824;2023-12-29T12:59:12;13.5;93.5
45383;DHT22;42455;51.660;5.824;2023-12-29T13:04:18;13.4;93.5
45383;DHT22;42455;51.660;5.824;2023-12-29T13:09:24;13.4;93.5
45383;DHT22;42455;51.660;5.824;2023-12-29T13:14:30;13.3;93.5
45383;DHT22;42455;51.660;5.824;2023-12-29T13:19:37;13.3;93.5
45383;DHT22;42455;51.660;5.824;2023-12-29T13:24:44;13.3;93.5
45383;DHT22;42455;51.660;5.824;2023-12-29T13:29:49;13.2;94.0
45383;DHT22;42455;51.660;5.824;2023-12-29T13:36:09;13.2;94.0
45383;DHT22;42455;51.660;5.824;2023-12-29T13:41:39;13.2;94.0
45383;DHT22;42455;51.660;5.824;2023-12-29T13:45:09;13.1;94.0
45383;DHT22;42455;51.660;5.824;2023-12-29T13:50:14;13.0;94.5
45383;DHT22;42455;51.660;5.824;2023-12-29T13:55:21;12.9;95.0
45383;DHT22;42455;51.660;5.824;2023-12-29T14:00:27;12.8;95.0
45383;DHT22;42455;51.660;5.824;2023-12-29T14:06:04;12.8;95.5
45383;DHT22;42455;51.660;5.824;2023-12-29T14:10:38;12.8;95.5
45383;DHT22;42455;51.660;5.824;2023-12-29T14:15:45;12.7;96.0
45383;DHT22;42455;51.660;5.824;2023-12-29T14:20:51;12.7;96.0
45383;DHT22;42455;51.660;5.824;2023-12-29T14:26:01;12.7;96.0
45383;DHT22;42455;51.660;5.824;2023-12-29T14:31:03;12.7;96.5
45383;DHT22;42455;51.660;5.824;2023-12-29T14:36:10;12.8;96.5
45383;DHT22;42455;51.660;5.824;2023-12-29T14:41:16;12.8;96.5
45383;DHT22;42455;51.660;5.824;2023-12-29T14:46:22;12.8;96.5
45383;DHT22;42455;51.660;5.824;2023-12-29T14:51:28;12.9;96.5
45383;DHT22;42455;51.660;5.824;2023-12-29T14:56:34;12.9;96.5
45383;DHT22;42455;51.660;5.824;2023-12-29T15:01:41;12.9;96.5
45383;DHT22;42455;51.660;5.824;2023-12-29T15:06:47;12.9;96.5
45383;DHT22;42455;51.660;5.824;2023-12-29T15:11:53;12.9;96.5
45383;DHT22;42455;51.660;5.824;2023-12-29T15:16:59;12.9;96.0
45383;DHT22;42455;51.660;5.824;2023-12-29T15:22:05;12.9;96.0
45383;DHT22;42455;51.660;5.824;2023-12-29T15:27:12;12.9;96.0
45383;DHT22;42455;51.660;5.824;2023-12-29T15:32:18;12.9;96.0
45383;DHT22;42455;51.660;5.824;2023-12-29T15:37:24;12.8;96.0
45383;DHT22;42455;51.660;5.824;2023-12-29T15:42:30;12.8;95.5
45383;DHT22;42455;51.660;5.824;2023-12-29T15:47:37;12.7;95.5
45383;DHT22;42455;51.660;5.824;2023-12-29T15:52:43;12.6;95.5
45383;DHT22;42455;51.660;5.824;2023-12-29T15:57:49;12.5;95.5
45383;DHT22;42455;51.660;5.824;2023-12-29T16:02:55;12.4;96.0
45383;DHT22;42455;51.660;5.824;2023-12-29T16:08:01;12.4;96.0
45383;DHT22;42455;51.660;5.824;2023-12-29T16:13:08;12.4;96.0
45383;DHT22;42455;51.660;5.824;2023-12-29T16:18:14;12.3;96.5
45383;DHT22;42455;51.660;5.824;2023-12-29T16:23:20;12.3;96.5
45383;DHT22;42455;51.660;5.824;2023-12-29T16:28:26;12.3;96.5
45383;DHT22;42455;51.660;5.824;2023-12-29T16:33:32;12.3;96.5
45383;DHT22;42455;51.660;5.824;2023-12-29T16:38:46;12.3;97.0
45383;DHT22;42455;51.660;5.824;2023-12-29T16:43:45;12.2;97.0
45383;DHT22;42455;51.660;5.824;2023-12-29T16:48:50;12.2;97.0
45383;DHT22;42455;51.660;5.824;2023-12-29T16:53:56;12.3;97.5
45383;DHT22;42455;51.660;5.824;2023-12-29T16:59:02;12.3;97.5
45383;DHT22;42455;51.660;5.824;2023-12-29T17:04:09;12.3;97.5
45383;DHT22;42455;51.660;5.824;2023-12-29T17:09:15;12.4;97.5
45383;DHT22;42455;51.660;5.824;2023-12-29T17:14:21;12.4;97.5
45383;DHT22;42455;51.660;5.824;2023-12-29T17:19:27;12.4;97.5
45383;DHT22;42455;51.660;5.824;2023-12-29T17:24:34;12.4;97.5
45383;DHT22;42455;51.660;5.824;2023-12-29T17:29:40;12.4;97.5
45383;DHT22;42455;51.660;5.824;2023-12-29T17:34:46;12.5;97.5
45383;DHT22;42455;51.660;5.824;2023-12-29T17:39:52;12.5;97.5
45383;DHT22;42455;51.660;5.824;2023-12-29T17:44:58;12.6;97.5
45383;DHT22;42455;51.660;5.824;2023-12-29T17:50:05;12.6;97.0
45383;DHT22;42455;51.660;5.824;2023-12-29T17:55:11;12.6;97.0
45383;DHT22;42455;51.660;5.824;2023-12-29T18:00:17;12.7;97.0
45383;DHT22;42455;51.660;5.824;2023-12-29T18:05:23;12.7;97.0
45383;DHT22;42455;51.660;5.824;2023-12-29T18:10:29;12.7;97.0
45383;DHT22;42455;51.660;5.824;2023-12-29T18:15:35;12.7;97.0
45383;DHT22;42455;51.660;5.824;2023-12-29T18:20:42;12.7;97.0
45383;DHT22;42455;51.660;5.824;2023-12-29T18:25:48;12.7;96.5
45383;DHT22;42455;51.660;5.824;2023-12-29T18:30:54;12.7;96.5
45383;DHT22;42455;51.660;5.824;2023-12-29T18:36:01;12.7;96.5
45383;DHT22;42455;51.660;5.824;2023-12-29T18:41:08;12.7;96.5
45383;DHT22;42455;51.660;5.824;2023-12-29T18:46:13;12.7;96.5
45383;DHT22;42455;51.660;5.824;2023-12-29T18:51:19;12.7;96.0
45383;DHT22;42455;51.660;5.824;2023-12-29T18:56:25;12.7;96.0
45383;DHT22;42455;51.660;5.824;2023-12-29T19:01:31;12.7;96.0
45383;DHT22;42455;51.660;5.824;2023-12-29T19:06:38;12.6;95.5
45383;DHT22;42455;51.660;5.824;2023-12-29T19:11:44;12.6;95.5
45383;DHT22;42455;51.660;5.824;2023-12-29T19:16:50;12.6;95.5
45383;DHT22;42455;51.660;5.824;2023-12-29T19:21:56;12.6;95.5
45383;DHT22;42455;51.660;5.824;2023-12-29T19:27:02;12.5;95.5
45383;DHT22;42455;51.660;5.824;2023-12-29T19:32:09;12.5;96.0
45383;DHT22;42455;51.660;5.824;2023-12-29T19:37:15;12.4;96.0
45383;DHT22;42455;51.660;5.824;2023-12-29T19:42:21;12.4;96.0
45383;DHT22;42455;51.660;5.824;2023-12-29T19:47:27;12.4;95.5
45383;DHT22;42455;51.660;5.824;2023-12-29T19:52:33;12.3;95.5
45383;DHT22;42455;51.660;5.824;2023-12-29T19:57:40;12.2;95.5
45383;DHT22;42455;51.660;5.824;2023-12-29T20:02:46;12.2;95.5
45383;DHT22;42455;51.660;5.824;2023-12-29T20:07:52;12.2;95.5
45383;DHT22;42455;51.660;5.824;2023-12-29T20:12:58;12.2;95.0
45383;DHT22;42455;51.660;5.824;2023-12-29T20:18:05;12.1;95.0
45383;DHT22;42455;51.660;5.824;2023-12-29T20:23:11;12.1;95.0
45383;DHT22;42455;51.660;5.824;2023-12-29T20:28:17;12.1;95.0
45383;DHT22;42455;51.660;5.824;2023-12-29T20:33:23;12.1;95.0
45383;DHT22;42455;51.660;5.824;2023-12-29T20:38:29;12.1;95.0
45383;DHT22;42455;51.660;5.824;2023-12-29T20:43:36;12.1;95.0
45383;DHT22;42455;51.660;5.824;2023-12-29T20:48:42;12.0;95.0
45383;DHT22;42455;51.660;5.824;2023-12-29T20:53:49;12.0;95.0
45383;DHT22;42455;51.660;5.824;2023-12-29T20:58:54;12.0;95.5
45383;DHT22;42455;51.660;5.824;2023-12-29T21:04:01;12.0;95.5
45383;DHT22;42455;51.660;5.824;2023-12-29T21:09:07;12.0;95.5
45383;DHT22;42455;51.660;5.824;2023-12-29T21:14:13;11.9;95.5
45383;DHT22;42455;51.660;5.824;2023-12-29T21:19:19;11.9;95.5
45383;DHT22;42455;51.660;5.824;2023-12-29T21:24:25;11.9;95.5
45383;DHT22;42455;51.660;5.824;2023-12-29T21:29:31;11.9;95.0
45383;DHT22;42455;51.660;5.824;2023-12-29T21:34:38;11.9;95.0
45383;DHT22;42455;51.660;5.824;2023-12-29T21:44:50;11.8;95.0
45383;DHT22;42455;51.660;5.824;2023-12-29T21:49:56;11.8;95.0
45383;DHT22;42455;51.660;5.824;2023-12-29T21:55:02;11.8;95.0
45383;DHT22;42455;51.660;5.824;2023-12-29T22:00:09;11.7;94.5
45383;DHT22;42455;51.660;5.824;2023-12-29T22:05:15;11.7;94.5
45383;DHT22;42455;51.660;5.824;2023-12-29T22:10:21;11.6;94.5
45383;DHT22;42455;51.660;5.824;2023-12-29T22:15:27;11.6;94.5
45383;DHT22;42455;51.660;5.824;2023-12-29T22:20:33;11.6;94.5
45383;DHT22;42455;51.660;5.824;2023-12-29T22:25:39;11.5;94.5
45383;DHT22;42455;51.660;5.824;2023-12-29T22:30:45;11.5;94.5
45383;DHT22;42455;51.660;5.824;2023-12-29T22:35:51;11.5;95.0
45383;DHT22;42455;51.660;5.824;2023-12-29T22:40:57;11.5;95.0
45383;DHT22;42455;51.660;5.824;2023-12-29T22:46:04;11.5;95.0
45383;DHT22;42455;51.660;5.824;2023-12-29T22:51:10;11.5;94.5
45383;DHT22;42455;51.660;5.824;2023-12-29T22:56:16;11.5;94.5
45383;DHT22;42455;51.660;5.824;2023-12-29T23:01:22;11.5;94.5
45383;DHT22;42455;51.660;5.824;2023-12-29T23:06:28;11.5;94.5
45383;DHT22;42455;51.660;5.824;2023-12-29T23:11:35;11.5;94.5
45383;DHT22;42455;51.660;5.824;2023-12-29T23:16:41;11.4;94.5
45383;DHT22;42455;51.660;5.824;2023-12-29T23:21:47;11.4;94.5
45383;DHT22;42455;51.660;5.824;2023-12-29T23:26:53;11.4;94.5
45383;DHT22;42455;51.660;5.824;2023-12-29T23:31:59;11.4;94.5
45383;DHT22;42455;51.660;5.824;2023-12-29T23:37:06;11.4;94.5
45383;DHT22;42455;51.660;5.824;2023-12-29T23:42:12;11.3;94.5
45383;DHT22;42455;51.660;5.824;2023-12-29T23:47:18;11.3;94.5
45383;DHT22;42455;51.660;5.824;2023-12-29T23:52:24;11.3;94.5
45383;DHT22;42455;51.660;5.824;2023-12-29T23:57:30;11.3;94.5
